Hoosier Classic - Inventory Old Bird

Station: INVENTORY - T Race

Distance: 10 Miles

Release: 20-Jan-2018 12:00

Weather Release:    Arrival:

Wind at Release:     Wind at Arrival:

Temp at Release: °    Temp at Arrival: °

Lofts: 94

Birds: 317

Clocked: 317

Good Luck to Everyone!
Drops Pos Breeder Pigeon Name Color Sex Ent Arrival Speed To Win Eligible
1 Sheila Gabler - IL 0108-AU17-ADL SILV C 1 12:18:58.90 927.210 00:00:00 Yes
1 Andy Skwiat - IN 0006-AU17-ANDY BB H 1 12:18:58.90 927.210 00:00:00 Yes
3 Hylek Loft - IN 0305-AU17-MICH BB C 1 12:18:59.30 926.885 00:00:00 Yes
4 Malone Family Loft - IL 0085-AU17-MALO "Jacks Pick" BB C 1 12:18:59.70 926.560 00:00:01 Yes
5 Two-Be-Won - NV 17116-AU17-TWOB BPD H 1 12:18:59.80 926.478 00:00:01 Yes
6 Chino & Vazquez - FL 30399-AU17-ARPU BB C 1 12:19:20.00 910.345 00:00:21 Yes
7 F T L Loft - IN 6272-AU17-VK BB H 1 12:19:57.10 882.132 00:00:58 Yes
8 F T L Loft - IN 0031-AU17-HUTC BB H 2 12:20:01.50 878.901 00:01:03 Yes
9 Yandy Family Loft - FL 1250-AU17-VK BCH H 1 12:20:07.70 874.389 00:01:09 Yes
10 Aubrina & Pappy - IN 0915-AU17-VK BCH H 1 12:20:27.30 860.425 00:01:28 Yes
11 Brito Loft - FL 0113-AU17-EMIL BB H 1 12:20:51.00 844.125 00:01:52 Yes
12 Hmong Syndicate - MN 0336-AU17-ROYA PATHFINDER BB C 1 12:21:33.80 816.200 00:02:35 Yes
13 Sanso Loft - FL 3915-AU17-HRPC BCH H 1 12:21:54.50 803.347 00:02:56 Yes
14 Wolf Den & Family Loft - IL 0019-AU17-WOLF BB C 1 12:22:00.30 799.818 00:03:01 Yes
15 Two-Be-Won - NV 17142-AU17-TWOB CH H 2 12:23:43.60 741.781 00:04:45 Yes
16 Flying Dragon Loft - GA 0533-AU17-GA BB H 1 12:23:51.70 737.585 00:04:53 Yes
17 777-Loft - MN 0215-AU17-SPR Wild Fire BB H 1 12:23:54.50 736.145 00:04:56 Yes
18 Hylek Loft - IN 0303-AU17-MICH BB C 2 12:24:17.20 724.677 00:05:18 Yes
19 Mesopotamia Loft - MN 5314-AU17-VK BCH H 1 12:24:26.10 720.278 00:05:27 Yes
20 Cbp Loft - IN 0008-AU17-JHWA BB C 1 12:24:27.20 719.738 00:05:28 Yes
21 Stephen Brothers - CA 0714-AU17-COM BB C 1 12:24:29.70 718.514 00:05:31 Yes
22 Ganus Family Loft - IN 0750-AU17-GFL BB H 1 12:24:32.00 717.391 00:05:33 Yes
23 Me Fui Vega Loft - FL 0044-AU17-MEFU BB C 1 12:24:32.10 717.343 00:05:33 Yes
24 Bogdan Chlebek - IL 11602-AU17-CHIC BB H 1 12:24:32.80 717.002 00:05:34 Yes
24 Stevens Family Loft - IL 0027-AU17-MRPC BB C 1 12:24:32.80 717.002 00:05:34 Yes
26 Aubrina & Pappy - IN 0901-AU17-VK BB H 2 12:24:34.00 716.418 00:05:35 Yes
27 Aztec Loft - DE 0016-AU17-FCI BB C 1 12:24:34.70 716.078 00:05:36 Yes
28 Debbie Ganus - IN 0724-AU17-GFL BCH H 1 12:24:35.40 715.738 00:05:36 Yes
29 F T L Loft - IN 0075-AU17-HUTC BB C 3 12:24:36.30 715.302 00:05:37 Yes
30 Daehn/Miele - FL 0201-AU17-NWFI Rw X 419 DCH H 1 12:24:37.40 714.769 00:05:38 Yes
31 Debbie Ganus - IN 0031-AU17-GFL BCH H 2 12:24:37.50 714.721 00:05:39 Yes
32 Macken/Zittler - MN 0666-AU17-MACK RCH C 1 12:24:38.10 714.431 00:05:39 Yes
33 A P C Loft - TX 17108-AU17-APC BCH C 1 12:24:38.80 714.093 00:05:40 Yes
34 Patrick Kwan - CA 0720-AU17-KWAN SILV C 1 12:24:38.90 714.044 00:05:40 Yes
35 Furlano & Rotiroti - ON 3374-CU17-LAKE BB C 1 12:24:39.30 713.851 00:05:40 Yes
36 Aubrina & Pappy - IN 0919-AU17-VK BCH H 3 12:24:39.90 713.562 00:05:41 Yes
36 Any Given Day Quest - TX 16503-AU17-QUES BB C 1 12:24:39.90 713.562 00:05:41 Yes
38 Dan & Pete - IL 0001-AU17-BFS BB H 1 12:24:40.60 713.224 00:05:42 Yes
39 Hynes - LA 1356-AU17-SLID BB C 1 12:24:41.30 712.887 00:05:42 Yes
40 Book & Van Wingerden - AZ 7013-AU17-BOOK Paloma Dorado BB C 1 12:24:41.70 712.695 00:05:43 Yes
41 Ken Easley & Son Racing - NM 5017-AU17-EASL 1139 x 119 BBPD H 1 12:24:42.50 712.310 00:05:44 Yes
41 Master One - CA 0045-AU17-MAST BB C 1 12:24:42.50 712.310 00:05:44 Yes
41 America\'s Dream Loft - IL 0065-AU17-ADL BWF C 1 12:24:42.50 712.310 00:05:44 Yes
44 Andy Skwiat - IN 0029-AU17-ANDY BSP H 2 12:24:42.60 712.262 00:05:44 Yes
45 Orozco's Loft - MI 0017-AU17-OROZ BB C 1 12:24:43.00 712.070 00:05:44 Yes
46 Alca Girls - IL 61913-AU17-ARPU Mynnie BBPD H 1 12:24:43.50 711.830 00:05:45 Yes
47 Skwiat/Braddy Syndicate - IN 0032-AU17-XLOF 100K Cock BPD C 1 12:24:43.60 711.782 00:05:45 Yes
48 Gibara Loft - FL 2623-AU17-HRPC BCH H 1 12:24:44.00 711.590 00:05:45 Yes
49 Ganus Family Loft - IN 0717-AU17-GFL BB H 2 12:24:44.50 711.351 00:05:46 Yes
50 Ganus Family Loft - IN 0721-AU17-GFL BB H 3 12:24:44.90 711.159 00:05:46 Yes
51 Ken Easley & Son Racing - NM 5018-AU17-EASL 1139 x 119 DCH H 2 12:24:45.50 710.872 00:05:47 Yes
51 Jim Kearney Loft - NY 4301-IF17-PERT BCH H 1 12:24:45.50 710.872 00:05:47 Yes
53 F T L Loft - IN 0033-AU17-HUTC BB C 4 12:24:46.00 710.633 00:05:47 Yes
53 Baptista - IL 0014-AU17-BAPT sister#13 BCH H 1 12:24:46.00 710.633 00:05:47 Yes
55 Mc Laughlin Lofts - MA 1008-AU17-MCLO BB H 1 12:24:46.60 710.346 00:05:48 Yes
55 Ken Easley & Son Racing - NM 5023-AU17-EASL 4402 x 420 CH H 3 12:24:46.60 710.346 00:05:48 Yes
55 Orozco's Loft - MI 0061-AU17-OROZ CHSP H 2 12:24:46.60 710.346 00:05:48 Yes
58 Book & Van Wingerden - AZ 7014-AU17-BOOK Rey Sol BB C 2 12:24:47.00 710.155 00:05:48 Yes
59 Andy Skwiat - IN 0009-AU17-ANDY Medusa BB H 3 12:24:47.10 710.107 00:05:48 Yes
60 Speed Loft - MN 0514-AU17-ROYA DCH H 1 12:24:47.60 709.868 00:05:49 Yes
61 A P C Loft - TX 34701-AU17-ARPU BCH C 2 12:24:48.10 709.630 00:05:49 Yes
61 H & H Loft - TX 6912-AU17-VK BCH H 1 12:24:48.10 709.630 00:05:49 Yes
61 Wolf Den & Family Loft - IL 0003-AU17-WOLF BB C 2 12:24:48.10 709.630 00:05:49 Yes
64 Debbie Ganus - IN 0701-AU17-GFL CHWF H 3 12:24:48.20 709.582 00:05:49 Yes
64 Kowkow Family Loft - FL 0220-AU17-BFS BB H 1 12:24:48.20 709.582 00:05:49 Yes
66 Andy Skwiat - IN 0014-AU17-ANDY BSP C 4 12:24:48.80 709.296 00:05:50 Yes
67 Bogdan Chlebek - IL 11604-AU17-CHIC BWF C 2 12:24:49.20 709.106 00:05:50 Yes
68 Book & Van Wingerden - AZ 7018-AU17-BOOK VM Boomerang BB C 3 12:24:49.30 709.058 00:05:50 Yes
68 Hwy 51 Loft - OK 0767-AU17-HWY BCH H 1 12:24:49.30 709.058 00:05:50 Yes
70 John Fukumoto - HI 0331-AU17-HAWN BB H 1 12:24:49.90 708.772 00:05:51 Yes
70 The X-Loft - IN 0011-AU17-XLOF Hollywood lights BWF H 1 12:24:49.90 708.772 00:05:51 Yes
72 Baczynski Loft - IN 6600-AU17-VK BB H 1 12:24:50.00 708.725 00:05:51 Yes
73 Family Tradition - MA 0548-AU17-PLY NanCap BWF H 1 12:24:50.40 708.535 00:05:51 Yes
74 H & H Loft - TX 6907-AU17-VK BCH C 2 12:24:50.50 708.487 00:05:52 Yes
75 Ganus Family Loft - IN 0306-AU17-GFL BWF H 4 12:24:51.00 708.249 00:05:52 Yes
76 Ganus Family Loft - IN 0322-AU17-GFL BB H 5 12:24:51.10 708.202 00:05:52 Yes
77 Ganus Family Loft - IN 0702-AU17-GFL CHWF H 6 12:24:51.70 707.917 00:05:53 Yes
77 Pl Abasolo Family Loft - IL 0816-AU17-LCC Airwolf V BB H 1 12:24:51.70 707.917 00:05:53 Yes
79 Andy Skwiat - IN 0040-AU17-ANDY Wild Dog PNSP C 5 12:24:52.30 707.633 00:05:53 Yes
79 Ganus Family Loft - IN 0333-AU17-GFL BB H 7 12:24:52.30 707.633 00:05:53 Yes
81 Andy Skwiat - IN 0015-AU17-ANDY DCSP C 6 12:24:52.40 707.585 00:05:53 Yes
82 Wolf Den & Family Loft - IL 0020-AU17-WOLF BB C 3 12:24:52.80 707.395 00:05:54 Yes
82 Ganus Family Loft - IN 0328-AU17-GFL BB H 8 12:24:52.80 707.395 00:05:54 Yes
84 Flying Dragon Loft - GA 0529-AU17-GA BB H 2 12:24:53.40 707.111 00:05:55 Yes
85 Book & Van Wingerden - AZ 7005-AU17-BOOK BBPD H 4 12:24:53.80 706.922 00:05:55 Yes
86 Rpm Syndicate - ON 0004-AU17-BFS BB C 1 12:24:54.40 706.638 00:05:55 Yes
87 Schillings - IN 0870-AU17-BFS BCH H 1 12:24:54.80 706.449 00:05:56 Yes
88 Aubrina & Pappy - IN 0902-AU17-VK BSP H 4 12:24:54.90 706.402 00:05:56 Yes
88 Andy Skwiat - IN 0022-AU17-ANDY BB H 7 12:24:54.90 706.402 00:05:56 Yes
90 Book & Van Wingerden - AZ 7039-AU17-BOOK BB H 5 12:24:55.00 706.355 00:05:56 Yes
91 Malloy Flying Loft - TX 0129-AU17-MALL BWF H 1 12:24:55.50 706.118 00:05:57 Yes
92 Daehn/Miele - FL 0203-AU17-NWFI 973 X 257 BBWF H 2 12:24:56.00 705.882 00:05:57 Yes
92 A P C Loft - TX 17196-AU17-APC BB C 3 12:24:56.00 705.882 00:05:57 Yes
92 Book & Van Wingerden - AZ 7000-AU17-BOOK Wacko's Park Place BB H 6 12:24:56.00 705.882 00:05:57 Yes
95 Erp -Duviel_ubaldo Team - GA 0024-AU17-ERP Delmon dos BB C 1 12:24:56.10 705.835 00:05:57 Yes
96 H & H Loft - TX 6930-AU17-VK BB C 3 12:24:56.60 705.599 00:05:58 Yes
97 3s Lofts - CA 0227-AU17-VIP Who's Your Daddy SILV H 1 12:24:56.70 705.552 00:05:58 Yes
97 Max - CA 0901-AU17-MAX BB H 1 12:24:56.70 705.552 00:05:58 Yes
99 Tegan Bogoslawski - IN 0103-AU17-ANDY BPD H 1 12:24:57.10 705.364 00:05:58 Yes
100 Debbie Ganus - IN 0723-AU17-GFL BCH H 4 12:24:57.20 705.317 00:05:58 Yes

There are 317 bird records

Note: These Race Results are unofficial and subject to change until verified by the Race Committee and declared final.